Time;durP1;ratioP1;P1;durP2;ratioP2;P2;SDS_P1;SDS_P2;PMS_P1;PMS_P2;Temp;Humidity;BMP_temperature;BMP_pressure;BME280_temperature;BME280_humidity;BME280_pressure;Samples;Min_cycle;Max_cycle;Signal;HPM_P1;HPM_P2
2022/06/14 04:08:36;;;;;;;6.68;4.60;;;;;;;13.57;88.53;100732.41;5577776;31;195922;-89
2022/06/14 04:11:54;;;;;;;5.22;4.55;;;;;;;13.61;87.72;100733.94;5563719;32;33453;-86
2022/06/14 04:15:00;;;;;;;6.15;4.80;;;;;;;13.75;87.08;100737.63;5564694;32;34131;-86
2022/06/14 04:18:40;;;;;;;8.13;4.80;;;;;;;13.98;86.70;100740.78;5564829;32;34437;-86
2022/06/14 04:21:55;;;;;;;7.93;4.93;;;;;;;14.00;86.26;100750.41;5564524;32;34640;-86
2022/06/14 04:25:06;;;;;;;5.80;4.50;;;;;;;14.19;85.82;100761.81;5564975;32;34370;-86
2022/06/14 04:28:12;;;;;;;9.60;4.57;;;;;;;14.11;86.54;100760.44;5566258;32;33474;-86
2022/06/14 04:31:38;;;;;;;6.20;4.97;;;;;;;14.24;87.24;100752.56;5569636;32;33461;-86
2022/06/14 04:34:52;;;;;;;6.62;4.68;;;;;;;14.37;86.16;100752.69;5556422;32;33644;-86
2022/06/14 04:38:04;;;;;;;9.18;5.05;;;;;;;14.54;85.25;100761.50;5564571;32;33788;-86
2022/06/14 04:41:13;;;;;;;5.85;4.57;;;;;;;14.67;84.58;100762.47;5564654;32;35122;-90
2022/06/14 04:44:31;;;;;;;6.72;4.65;;;;;;;14.61;84.99;100767.31;5564811;32;33969;-87
2022/06/14 04:47:55;;;;;;;7.00;5.00;;;;;;;14.76;84.78;100760.22;5564695;32;33838;-86
2022/06/14 04:51:05;;;;;;;7.43;4.80;;;;;;;14.80;84.14;100767.94;5560249;32;34014;-87
2022/06/14 04:54:34;;;;;;;4.43;4.03;;;;;;;15.21;82.47;100773.50;5555722;32;34483;-87
2022/06/14 04:57:50;;;;;;;5.68;4.40;;;;;;;15.85;79.78;100775.63;5548950;32;34401;-88
2022/06/14 05:00:57;;;;;;;4.93;4.47;;;;;;;16.13;77.97;100772.97;5544370;32;34217;-89
2022/06/14 05:04:06;;;;;;;5.30;4.12;;;;;;;15.92;78.99;100777.91;5548168;32;34103;-87
2022/06/14 05:07:15;;;;;;;7.57;4.35;;;;;;;16.23;77.42;100782.13;5543668;32;34569;-87
2022/06/14 05:10:48;;;;;;;7.95;4.25;;;;;;;16.04;77.59;100782.47;5551385;32;33952;-87
2022/06/14 05:14:00;;;;;;;8.98;4.43;;;;;;;16.28;76.88;100789.81;5549493;32;33634;-87
2022/06/14 05:17:12;;;;;;;6.72;3.97;;;;;;;16.44;76.17;100790.50;5548953;32;34087;-91
2022/06/14 05:20:31;;;;;;;5.93;3.87;;;;;;;17.99;71.11;100790.41;5532102;32;33525;-88
2022/06/14 05:23:44;;;;;;;4.85;3.60;;;;;;;21.11;59.27;100796.03;5534018;32;35300;-86
2022/06/14 05:27:15;;;;;;;5.85;3.50;;;;;;;23.15;52.70;100802.66;5535224;32;33882;-84
2022/06/14 05:30:42;;;;;;;6.47;3.40;;;;;;;22.77;51.18;100803.66;5535052;32;33907;-84
2022/06/14 05:33:54;;;;;;;8.13;3.60;;;;;;;23.04;49.82;100802.87;5535229;32;34049;-85
2022/06/14 05:37:01;;;;;;;9.15;3.65;;;;;;;20.79;57.75;100803.22;5546736;32;33792;-84
2022/06/14 05:40:13;;;;;;;5.18;3.78;;;;;;;22.62;52.50;100804.97;5536998;32;34274;-84
2022/06/14 05:43:32;;;;;;;6.75;3.65;;;;;;;24.35;47.66;100803.66;5547567;32;34815;-83
2022/06/14 05:46:41;;;;;;;5.25;3.33;;;;;;;27.87;39.34;100797.47;5542814;32;33405;-90
2022/06/14 05:49:57;;;;;;;6.93;3.17;;;;;;;26.70;39.61;100802.50;5538715;32;35095;-94
2022/06/14 05:53:06;;;;;;;6.05;3.37;;;;;;;27.18;39.28;100799.84;5531175;32;34799;-90
2022/06/14 05:59:41;;;;;;;10.40;3.10;;;;;;;31.03;32.02;100803.31;5561571;32;32268;-90
2022/06/14 06:03:11;;;;;;;7.32;3.00;;;;;;;33.01;28.80;100808.97;5560973;31;33747;-90
2022/06/14 06:06:39;;;;;;;3.55;2.50;;;;;;;33.29;27.56;100808.66;5556909;32;33878;-91
2022/06/14 06:10:04;;;;;;;4.28;2.72;;;;;;;33.83;26.81;100813.94;5561152;32;34013;-91
2022/06/14 06:13:33;;;;;;;18.10;2.95;;;;;;;31.36;29.09;100821.00;5553937;32;34083;-92
2022/06/14 06:20:45;;;;;;;7.83;2.23;;;;;;;30.99;30.01;100815.75;4954163;29;20085;-91
2022/06/14 06:31:55;;;;;;;7.12;2.72;;;;;;;31.08;29.13;100826.53;2263436;26;20102;-89
2022/06/14 06:35:07;;;;;;;8.38;2.80;;;;;;;30.69;30.27;100831.53;5568111;32;33960;-88
2022/06/14 06:38:32;;;;;;;9.90;3.05;;;;;;;29.77;31.51;100827.47;5570815;32;34623;-90
2022/06/14 06:41:52;;;;;;;6.53;2.80;;;;;;;30.52;30.27;100832.66;5567542;32;33698;-89
2022/06/14 06:45:22;;;;;;;4.80;2.67;;;;;;;28.95;32.99;100835.62;5551822;32;33663;-88
2022/06/14 06:48:36;;;;;;;9.52;2.95;;;;;;;27.83;33.90;100833.28;5556546;31;33700;-87
2022/06/14 06:51:44;;;;;;;6.43;2.75;;;;;;;27.57;35.49;100833.53;5569539;32;32325;-88
2022/06/14 06:55:03;;;;;;;3.97;2.70;;;;;;;25.84;38.03;100839.81;5561669;32;34227;-87
2022/06/14 06:58:19;;;;;;;13.30;2.97;;;;;;;26.88;36.63;100835.78;5555959;32;34444;-89
2022/06/14 07:01:24;;;;;;;4.80;2.90;;;;;;;27.54;36.19;100836.63;5557094;32;33706;-88
2022/06/14 07:07:57;;;;;;;6.03;3.37;;;;;;;26.08;39.68;100843.59;5567284;32;33455;-88
2022/06/14 07:11:04;;;;;;;4.50;2.78;;;;;;;26.11;39.12;100829.66;5572157;31;33813;-88
2022/06/14 07:14:23;;;;;;;6.35;2.95;;;;;;;25.78;39.99;100832.31;5573058;31;33836;-88
2022/06/14 07:17:34;;;;;;;5.95;3.22;;;;;;;26.32;39.76;100839.25;5566669;31;32185;-88
2022/06/14 07:20:56;;;;;;;3.83;2.85;;;;;;;26.22;38.44;100830.34;5590872;31;35247;-88
2022/06/14 07:24:20;;;;;;;9.35;3.12;;;;;;;26.30;38.67;100832.25;5580944;31;33871;-89
2022/06/14 07:27:30;;;;;;;9.27;3.60;;;;;;;25.77;40.90;100835.19;5583101;31;34439;-89
2022/06/14 07:30:45;;;;;;;9.35;3.40;;;;;;;26.00;39.23;100830.00;5588489;31;33982;-89
2022/06/14 07:33:48;;;;;;;6.75;3.05;;;;;;;25.69;39.62;100831.44;5583496;31;33676;-89
2022/06/14 07:37:14;;;;;;;12.27;3.12;;;;;;;26.24;38.74;100837.34;5583088;31;34218;-90
2022/06/14 07:40:29;;;;;;;11.30;3.10;;;;;;;26.47;39.06;100838.53;5584385;31;33591;-89
2022/06/14 07:43:44;;;;;;;15.90;4.00;;;;;;;25.56;38.89;100841.94;5585769;31;33062;-90
2022/06/14 07:46:58;;;;;;;6.60;2.95;;;;;;;25.66;38.97;100839.06;5562447;31;32296;-89
2022/06/14 07:50:16;;;;;;;5.55;3.22;;;;;;;25.89;37.88;100833.03;5573649;31;34038;-90
2022/06/14 07:57:27;;;;;;;6.68;2.80;;;;;;;26.40;37.44;100827.50;2339525;30;20083;-91
2022/06/14 08:04:10;;;;;;;4.93;3.10;;;;;;;27.04;33.59;100832.22;5563247;32;34243;-92
2022/06/14 08:11:00;;;;;;;5.05;2.85;;;;;;;27.28;31.96;100844.06;4898387;30;20092;-90
2022/06/14 08:14:16;;;;;;;4.62;2.70;;;;;;;26.01;33.13;100837.13;5558446;26;34286;-92
2022/06/14 08:17:41;;;;;;;8.55;2.90;;;;;;;26.88;31.74;100841.25;5530439;32;34991;-89
2022/06/14 08:20:56;;;;;;;6.30;2.72;;;;;;;27.86;31.14;100840.25;5531484;26;33047;-87
2022/06/14 08:24:06;;;;;;;21.62;3.05;;;;;;;26.34;32.69;100839.91;5466802;32;34182;-88
2022/06/14 08:27:27;;;;;;;10.40;2.80;;;;;;;27.77;31.37;100831.25;5456072;32;32579;-87
2022/06/14 08:30:35;;;;;;;5.50;2.60;;;;;;;28.45;28.29;100838.81;5452647;32;32492;-87
2022/06/14 08:33:52;;;;;;;8.07;2.60;;;;;;;27.76;27.62;100836.87;5469689;32;33894;-87
2022/06/14 08:37:06;;;;;;;6.05;2.75;;;;;;;26.25;29.02;100838.22;5460429;32;34448;-88
2022/06/14 08:40:28;;;;;;;4.65;2.62;;;;;;;26.53;27.02;100846.03;5465821;32;34986;-88
2022/06/14 08:43:49;;;;;;;6.95;2.40;;;;;;;26.30;28.60;100840.41;5473124;32;35316;-86
2022/06/14 08:47:03;;;;;;;6.82;2.53;;;;;;;25.55;29.00;100838.34;5480013;32;34305;-88
2022/06/14 08:50:15;;;;;;;5.97;2.50;;;;;;;27.36;28.50;100839.59;5473453;32;35172;-88
2022/06/14 08:53:21;;;;;;;5.90;2.55;;;;;;;28.35;27.03;100830.88;5472315;32;33662;-87
2022/06/14 08:56:43;;;;;;;6.70;2.53;;;;;;;28.06;26.07;100832.41;5469500;32;34813;-90
2022/06/14 09:00:22;;;;;;;9.85;2.67;;;;;;;28.94;25.45;100838.53;5473469;32;33930;-88
2022/06/14 09:03:38;;;;;;;5.93;2.50;;;;;;;28.91;24.65;100834.34;5472534;32;34110;-89
2022/06/14 09:07:19;;;;;;;9.00;2.40;;;;;;;29.58;24.71;100839.88;5473225;32;34455;-87
2022/06/14 09:10:58;;;;;;;8.20;2.45;;;;;;;27.36;26.01;100834.16;5473500;32;34030;-88
2022/06/14 09:14:40;;;;;;;4.53;2.20;;;;;;;27.61;27.06;100832.22;5474067;32;33988;-89
2022/06/14 09:18:02;;;;;;;6.50;2.08;;;;;;;28.67;25.30;100832.66;5473854;32;33610;-88
2022/06/14 09:21:12;;;;;;;4.37;2.28;;;;;;;28.49;25.79;100825.66;5457949;32;34272;-88
2022/06/14 09:24:27;;;;;;;5.47;2.37;;;;;;;29.27;24.86;100824.53;5453462;32;34517;-88
2022/06/14 09:27:48;;;;;;;3.10;2.08;;;;;;;30.57;23.09;100826.56;5454633;32;33882;-88
2022/06/14 09:34:41;;;;;;;6.18;2.30;;;;;;;29.19;24.23;100823.59;4951261;30;20175;-89
2022/06/14 09:38:03;;;;;;;5.12;2.30;;;;;;;29.21;24.59;100823.37;5560954;26;33796;-89
2022/06/14 09:41:27;;;;;;;5.53;2.30;;;;;;;29.12;24.36;100833.56;5551902;32;35272;-88
2022/06/14 09:44:57;;;;;;;4.95;2.40;;;;;;;28.28;24.82;100826.34;5551319;32;33919;-89
2022/06/14 09:48:15;;;;;;;4.40;2.60;;;;;;;28.19;25.46;100829.09;5550673;32;33651;-91
2022/06/14 09:51:57;;;;;;;4.78;2.15;;;;;;;27.39;26.18;100821.03;5551125;32;34026;-89
2022/06/14 09:55:32;;;;;;;5.72;2.33;;;;;;;28.95;24.98;100826.63;5554172;32;35319;-91
2022/06/14 09:58:56;;;;;;;6.32;2.60;;;;;;;29.84;23.47;100820.22;5548372;32;34028;-88
2022/06/14 10:02:20;;;;;;;4.43;2.70;;;;;;;30.06;23.67;100813.91;5547395;32;33983;-88
2022/06/14 10:06:01;;;;;;;5.43;2.50;;;;;;;28.50;25.84;100811.81;5535773;32;33920;-88
2022/06/14 10:09:17;;;;;;;4.85;2.80;;;;;;;27.31;28.48;100812.91;5535444;32;33861;-88
2022/06/14 10:12:42;;;;;;;6.45;2.70;;;;;;;25.80;30.40;100810.44;5535872;32;34080;-87
2022/06/14 10:16:02;;;;;;;5.37;2.53;;;;;;;26.52;28.38;100822.56;5550138;32;33513;-89
2022/06/14 10:19:40;;;;;;;3.67;2.62;;;;;;;26.70;27.21;100816.94;5544795;32;34510;-91
2022/06/14 10:29:49;;;;;;;3.97;2.50;;;;;;;28.02;26.03;100805.72;5544118;32;31156;-89
2022/06/14 10:44:37;;;;;;;4.05;2.65;;;;;;;27.18;27.93;100802.56;5539046;32;20095;-88
2022/06/14 10:48:07;;;;;;;6.53;2.65;;;;;;;27.61;27.04;100799.50;5527159;32;35007;-88
2022/06/14 10:51:32;;;;;;;4.30;2.80;;;;;;;27.51;27.98;100799.69;5504299;32;34661;-87
2022/06/14 10:54:47;;;;;;;3.55;2.47;;;;;;;28.25;27.42;100790.22;5529442;32;34193;-86
2022/06/14 10:58:14;;;;;;;3.97;2.37;;;;;;;28.31;27.35;100799.53;5517596;32;33844;-92
2022/06/14 11:01:48;;;;;;;5.65;3.00;;;;;;;27.54;27.24;100798.47;5522123;32;33992;-88
2022/06/14 11:05:13;;;;;;;4.68;2.53;;;;;;;27.67;26.97;100787.03;5514041;32;33924;-89
2022/06/14 11:08:27;;;;;;;5.03;2.60;;;;;;;27.88;26.88;100786.37;5515993;32;33756;-88
2022/06/14 11:12:09;;;;;;;7.20;2.60;;;;;;;26.04;29.88;100784.31;5525821;32;34239;-89
2022/06/14 11:15:22;;;;;;;5.78;2.67;;;;;;;25.60;31.77;100790.84;5457938;32;32593;-88
2022/06/14 11:18:35;;;;;;;6.35;2.67;;;;;;;25.84;31.72;100790.03;5474630;32;34390;-88
2022/06/14 11:21:47;;;;;;;4.85;2.70;;;;;;;25.72;31.16;100796.81;5511789;32;35263;-92
2022/06/14 11:24:56;;;;;;;4.82;2.53;;;;;;;25.48;32.06;100801.16;5516670;32;34004;-88
2022/06/14 11:28:08;;;;;;;6.68;2.60;;;;;;;25.36;31.41;100792.44;5532784;32;34334;-89
2022/06/14 11:31:27;;;;;;;5.72;3.03;;;;;;;24.68;32.35;100806.63;5530204;32;35079;-89
2022/06/14 11:38:15;;;;;;;3.70;2.37;;;;;;;26.15;30.69;100778.50;1761660;26;20155;-89
2022/06/14 11:41:21;;;;;;;4.50;2.40;;;;;;;26.44;30.66;100777.19;5536655;32;33963;-88
2022/06/14 11:47:56;;;;;;;3.17;2.42;;;;;;;26.34;29.09;100790.97;5540841;32;33522;-88
2022/06/14 11:51:23;;;;;;;4.45;2.50;;;;;;;24.93;31.26;100793.25;5543415;32;34347;-89
2022/06/14 11:54:39;;;;;;;3.60;2.45;;;;;;;24.29;31.99;100797.00;5533209;32;34455;-92
2022/06/14 11:57:53;;;;;;;3.50;2.53;;;;;;;24.31;32.08;100792.28;5532764;32;34511;-89
2022/06/14 12:01:08;;;;;;;2.45;2.12;;;;;;;24.13;31.13;100796.87;5531944;32;34153;-89
2022/06/14 12:04:37;;;;;;;5.28;2.70;;;;;;;24.31;29.90;100786.88;5541341;32;34356;-89
2022/06/14 12:07:43;;;;;;;3.00;2.22;;;;;;;24.85;31.05;100787.78;5537000;32;33973;-87
2022/06/14 12:10:59;;;;;;;4.32;2.70;;;;;;;25.61;29.63;100792.53;5516249;32;32356;-87
2022/06/14 12:14:08;;;;;;;3.72;2.67;;;;;;;25.41;28.78;100790.06;5534403;32;34257;-88
2022/06/14 12:17:25;;;;;;;6.05;2.60;;;;;;;25.26;29.76;100785.28;5541331;32;34456;-88
2022/06/14 12:20:34;;;;;;;3.78;2.22;;;;;;;26.20;28.95;100792.44;5544366;32;33729;-92
2022/06/14 12:23:45;;;;;;;6.37;2.70;;;;;;;25.97;28.48;100784.12;5548143;32;34030;-89
2022/06/14 12:27:02;;;;;;;4.05;2.55;;;;;;;25.68;28.56;100799.00;5539473;32;34013;-88
2022/06/14 12:30:06;;;;;;;6.82;2.53;;;;;;;24.63;30.41;100789.97;5547775;32;33865;-89
2022/06/14 12:33:18;;;;;;;3.75;2.40;;;;;;;24.53;29.73;100786.53;5525891;32;33838;-88
2022/06/14 12:36:56;;;;;;;4.80;2.90;;;;;;;24.23;30.68;100782.22;5536951;32;35253;-91
2022/06/14 12:40:20;;;;;;;4.53;2.30;;;;;;;23.44;32.28;100783.75;5536848;32;33968;-89
2022/06/14 12:43:32;;;;;;;6.90;2.55;;;;;;;23.95;32.53;100787.69;5544587;32;35058;-87
2022/06/14 12:46:40;;;;;;;4.87;2.45;;;;;;;24.33;31.49;100783.97;5541165;32;34622;-88
2022/06/14 12:49:49;;;;;;;4.95;2.33;;;;;;;24.22;31.72;100777.81;5542141;32;34788;-88
2022/06/14 12:52:57;;;;;;;3.70;2.53;;;;;;;23.96;33.37;100764.16;5544951;32;33978;-89
2022/06/14 12:56:12;;;;;;;6.82;2.37;;;;;;;23.58;33.81;100777.81;5537283;32;33966;-89
2022/06/14 12:59:28;;;;;;;4.87;2.55;;;;;;;24.44;33.61;100772.87;5531290;32;33315;-87
2022/06/14 13:02:44;;;;;;;7.30;2.40;;;;;;;24.61;33.64;100775.72;5547392;32;34749;-88
2022/06/14 13:06:05;;;;;;;4.70;2.53;;;;;;;24.30;33.59;100779.75;5550139;32;34292;-88
2022/06/14 13:09:43;;;;;;;2.80;2.60;;;;;;;24.65;33.15;100768.97;5541813;32;32978;-88
2022/06/14 13:13:00;;;;;;;5.60;2.55;;;;;;;24.25;34.01;100768.53;5553110;32;35214;-88
2022/06/14 13:16:15;;;;;;;8.77;2.95;;;;;;;23.62;34.06;100765.69;5554337;32;34427;-87
2022/06/14 13:19:33;;;;;;;8.90;3.12;;;;;;;24.21;33.00;100764.41;5557219;32;34019;-89
2022/06/14 13:22:51;;;;;;;3.55;2.50;;;;;;;24.54;33.32;100763.81;5543965;32;32693;-88
2022/06/14 13:26:18;;;;;;;6.12;2.50;;;;;;;24.58;32.91;100760.62;5550959;32;34115;-88
2022/06/14 13:29:50;;;;;;;11.75;3.08;;;;;;;24.53;32.82;100765.66;5556732;32;35933;-86
2022/06/14 13:33:16;;;;;;;2.97;2.62;;;;;;;24.39;32.34;100756.25;5561828;32;35193;-87
2022/06/14 13:36:25;;;;;;;5.80;2.70;;;;;;;23.65;33.61;100748.28;5538929;32;33876;-88
2022/06/14 13:39:42;;;;;;;5.60;2.83;;;;;;;22.67;35.34;100745.03;5545420;32;34333;-88
2022/06/14 13:42:57;;;;;;;4.40;2.62;;;;;;;23.37;34.72;100745.63;5557254;32;34291;-88
2022/06/14 13:46:25;;;;;;;7.43;2.67;;;;;;;22.91;34.07;100748.22;5555851;32;34492;-88
2022/06/14 13:49:52;;;;;;;4.05;2.58;;;;;;;23.08;34.11;100746.59;5550447;32;34309;-87
2022/06/14 13:53:05;;;;;;;5.85;3.25;;;;;;;22.61;35.79;100745.63;5551496;32;34563;-90
2022/06/14 13:56:22;;;;;;;3.73;2.80;;;;;;;22.89;36.84;100740.28;5551885;32;34429;-88
2022/06/14 13:59:31;;;;;;;4.10;2.77;;;;;;;22.77;36.41;100736.06;5551692;32;33895;-88
2022/06/14 14:03:15;;;;;;;6.37;2.80;;;;;;;22.97;35.58;100742.22;5538755;32;34398;-88
2022/06/14 14:06:32;;;;;;;9.27;3.00;;;;;;;23.26;35.76;100742.09;5504530;32;33756;-88
2022/06/14 14:10:03;;;;;;;12.85;2.75;;;;;;;23.05;35.38;100725.25;5517760;32;33268;-87
2022/06/14 14:13:27;;;;;;;4.57;2.17;;;;;;;23.14;35.25;100733.31;5516387;32;33957;-88
2022/06/14 14:17:05;;;;;;;11.68;2.55;;;;;;;23.31;34.60;100727.28;5547808;32;33985;-89
2022/06/14 14:20:27;;;;;;;4.18;2.90;;;;;;;22.89;35.78;100721.34;5541500;32;36024;-88
2022/06/14 14:23:55;;;;;;;6.12;2.42;;;;;;;23.26;34.88;100733.13;5537665;26;35274;-88
2022/06/14 14:27:11;;;;;;;3.25;2.47;;;;;;;22.89;34.96;100721.34;5504995;32;35270;-91
2022/06/14 14:30:23;;;;;;;9.93;2.53;;;;;;;23.11;34.63;100720.09;5505803;32;35291;-89
2022/06/14 14:33:36;;;;;;;2.85;2.40;;;;;;;22.90;34.91;100720.34;5503868;32;35286;-88
2022/06/14 14:37:03;;;;;;;4.53;2.25;;;;;;;22.92;33.28;100728.31;5501529;32;34127;-87
2022/06/14 14:40:20;;;;;;;5.68;2.50;;;;;;;22.92;34.23;100714.78;5492321;32;33841;-87
2022/06/14 14:43:24;;;;;;;7.85;2.28;;;;;;;23.24;33.91;100711.59;5492301;32;34600;-87
2022/06/14 14:46:34;;;;;;;4.40;2.40;;;;;;;23.31;32.26;100722.72;5492421;32;33965;-87
2022/06/14 14:49:46;;;;;;;8.23;2.78;;;;;;;22.70;33.37;100716.84;5492442;32;33928;-87
2022/06/14 14:52:59;;;;;;;2.92;2.40;;;;;;;22.74;34.36;100718.28;5477620;32;33964;-87
2022/06/14 14:56:14;;;;;;;5.53;2.35;;;;;;;22.54;34.32;100707.53;5488299;32;34665;-85
2022/06/14 14:59:37;;;;;;;4.03;2.17;;;;;;;22.82;35.02;100702.16;5493488;32;35444;-85
2022/06/14 15:06:22;;;;;;;2.83;2.00;;;;;;;23.07;33.51;100701.63;5475006;32;34321;-86
2022/06/14 15:09:28;;;;;;;3.08;2.20;;;;;;;22.88;33.00;100695.31;5473900;32;33552;-87
2022/06/14 15:12:42;;;;;;;4.25;1.95;;;;;;;22.98;33.95;100690.69;5473919;32;33896;-85
2022/06/14 15:15:44;;;;;;;4.40;2.10;;;;;;;23.29;33.32;100700.34;5473611;32;34674;-87
2022/06/14 15:22:21;;;;;;;3.25;1.70;;;;;;;22.84;33.49;100683.91;5473934;32;33896;-85
2022/06/14 15:25:27;;;;;;;2.22;1.80;;;;;;;22.95;33.67;100692.84;5461155;32;33276;-85
2022/06/14 15:28:40;;;;;;;12.35;2.55;;;;;;;22.92;34.34;100694.00;5461526;32;32265;-86
